createdAt,value
2019-05-09T00:00:16.548Z,989.6
2019-05-09T00:01:18.702Z,989.5
2019-05-09T00:02:21.228Z,989.6
2019-05-09T00:03:26.008Z,989.5
2019-05-09T00:04:28.245Z,989.6
2019-05-09T00:05:30.413Z,989.6
2019-05-09T00:06:35.265Z,989.5
2019-05-09T00:07:37.422Z,989.6
2019-05-09T00:08:39.594Z,989.5
2019-05-09T00:09:44.362Z,989.5
2019-05-09T00:10:46.516Z,989.6
2019-05-09T00:11:49.081Z,989.6
2019-05-09T00:12:51.232Z,989.6
2019-05-09T00:13:55.767Z,989.5
2019-05-09T00:14:58.206Z,989.5
2019-05-09T00:16:00.388Z,989.5
2019-05-09T00:17:04.283Z,989.6
2019-05-09T00:18:06.471Z,989.6
2019-05-09T00:19:08.707Z,989.6
2019-05-09T00:20:13.439Z,989.5
2019-05-09T00:21:16.206Z,989.5
2019-05-09T00:22:19.105Z,989.5
2019-05-09T00:23:21.282Z,989.5
2019-05-09T00:24:26.301Z,989.5
2019-05-09T00:25:28.461Z,989.5
2019-05-09T00:26:30.636Z,989.5
2019-05-09T00:27:33.503Z,989.5
2019-05-09T00:28:36.383Z,989.5
2019-05-09T00:29:38.627Z,989.5
2019-05-09T00:30:40.799Z,989.5
2019-05-09T00:31:45.201Z,989.5
2019-05-09T00:32:47.838Z,989.5
2019-05-09T00:33:49.998Z,989.5
2019-05-09T00:34:53.544Z,989.6
2019-05-09T00:35:55.739Z,989.5
2019-05-09T00:36:58.178Z,989.5
2019-05-09T00:38:00.417Z,989.5
2019-05-09T00:39:04.407Z,989.5
2019-05-09T00:40:07.039Z,989.5
2019-05-09T00:41:09.201Z,989.5
2019-05-09T00:42:13.933Z,989.5
2019-05-09T00:43:16.404Z,989.5
2019-05-09T00:44:18.570Z,989.4
2019-05-09T00:45:20.827Z,989.5
2019-05-09T00:46:25.677Z,989.5
2019-05-09T00:47:28.285Z,989.5
2019-05-09T00:48:30.449Z,989.5
2019-05-09T00:49:35.475Z,989.5
2019-05-09T00:50:37.703Z,989.5
2019-05-09T00:51:39.819Z,989.5
2019-05-09T00:52:43.332Z,989.5
2019-05-09T00:53:45.499Z,989.4
2019-05-09T00:54:47.685Z,989.4
2019-05-09T00:55:49.923Z,989.5
2019-05-09T00:56:54.353Z,989.4
2019-05-09T00:57:56.592Z,989.4
2019-05-09T00:58:58.727Z,989.4
2019-05-09T01:00:01.292Z,989.4
2019-05-09T01:01:05.908Z,989.4
2019-05-09T01:02:08.082Z,989.4
2019-05-09T01:03:10.259Z,989.4
2019-05-09T01:04:13.947Z,989.5
2019-05-09T01:05:16.446Z,989.4
2019-05-09T01:06:18.650Z,989.4
2019-05-09T01:07:20.832Z,989.4
2019-05-09T01:08:25.171Z,989.4
2019-05-09T01:09:27.378Z,989.4
2019-05-09T01:10:29.585Z,989.3
2019-05-09T01:11:33.633Z,989.4
2019-05-09T01:12:35.865Z,989.4
2019-05-09T01:13:38.045Z,989.4
2019-05-09T01:14:40.488Z,989.4
2019-05-09T01:15:44.942Z,989.3
2019-05-09T01:16:47.111Z,989.4
2019-05-09T01:17:49.324Z,989.3
2019-05-09T01:18:53.693Z,989.3
2019-05-09T01:19:56.785Z,989.3
2019-05-09T01:20:58.952Z,989.3
2019-05-09T01:22:01.112Z,989.3
2019-05-09T01:23:05.815Z,989.3
2019-05-09T01:24:08.366Z,989.4
2019-05-09T01:25:10.614Z,989.4
2019-05-09T01:26:15.400Z,989.4
2019-05-09T01:27:17.609Z,989.4
2019-05-09T01:28:19.802Z,989.3
2019-05-09T01:29:23.418Z,989.3
2019-05-09T01:30:25.928Z,989.3
2019-05-09T01:31:28.102Z,989.3
2019-05-09T01:32:30.339Z,989.3
2019-05-09T01:33:33.576Z,989.3
2019-05-09T01:34:36.050Z,989.3
2019-05-09T01:35:38.279Z,989.4
2019-05-09T01:36:40.438Z,989.4
2019-05-09T01:37:44.966Z,989.4
2019-05-09T01:38:47.125Z,989.4
2019-05-09T01:39:49.314Z,989.4
2019-05-09T01:40:53.562Z,989.4
2019-05-09T01:41:55.732Z,989.4
2019-05-09T01:42:58.680Z,989.4
2019-05-09T01:44:00.833Z,989.4
2019-05-09T01:45:05.693Z,989.4
2019-05-09T01:46:07.864Z,989.4
2019-05-09T01:47:10.432Z,989.3
2019-05-09T01:48:14.281Z,989.4
2019-05-09T01:49:16.460Z,989.3
2019-05-09T01:50:19.019Z,989.3
2019-05-09T01:51:23.673Z,989.3
2019-05-09T01:52:25.922Z,989.3
2019-05-09T01:53:28.099Z,989.3
2019-05-09T01:54:30.271Z,989.3
2019-05-09T01:55:34.811Z,989.3
2019-05-09T01:56:36.996Z,989.4
2019-05-09T01:57:39.491Z,989.4
2019-05-09T01:58:43.416Z,989.4
2019-05-09T01:59:45.593Z,989.4
2019-05-09T02:00:48.134Z,989.3
2019-05-09T02:01:50.313Z,989.3
2019-05-09T02:02:54.648Z,989.3
2019-05-09T02:03:56.810Z,989.4
2019-05-09T02:04:59.054Z,989.3
2019-05-09T02:06:03.808Z,989.3
2019-05-09T02:07:06.661Z,989.3
2019-05-09T02:08:08.920Z,989.4
2019-05-09T02:09:11.088Z,989.4
2019-05-09T02:10:15.808Z,989.4
2019-05-09T02:11:17.978Z,989.4
2019-05-09T02:12:20.219Z,989.4
2019-05-09T02:13:23.452Z,989.4
2019-05-09T02:14:26.013Z,989.4
2019-05-09T02:15:28.260Z,989.4
2019-05-09T02:16:30.412Z,989.4
2019-05-09T02:17:33.757Z,989.4
2019-05-09T02:18:36.587Z,989.4
2019-05-09T02:19:38.714Z,989.4
2019-05-09T02:20:40.944Z,989.4
2019-05-09T02:21:45.840Z,989.4
2019-05-09T02:22:48.449Z,989.5
2019-05-09T02:23:53.490Z,989.5
2019-05-09T02:24:55.873Z,989.5
2019-05-09T02:25:58.084Z,989.5
2019-05-09T02:27:00.263Z,989.5
2019-05-09T02:28:03.784Z,989.5
2019-05-09T02:29:05.959Z,989.5
2019-05-09T02:30:08.198Z,989.5
2019-05-09T02:31:11.370Z,989.6
2019-05-09T02:32:18.845Z,989.6
2019-05-09T02:33:21.003Z,989.6
2019-05-09T02:34:26.732Z,989.6
2019-05-09T02:35:47.144Z,989.6
2019-05-09T02:37:04.323Z,989.6
2019-05-09T02:38:09.848Z,989.6
2019-05-09T02:39:12.361Z,989.5
2019-05-09T02:40:19.034Z,989.5
2019-05-09T02:41:21.531Z,989.6
2019-05-09T02:42:24.622Z,989.6
2019-05-09T02:43:30.320Z,989.7
2019-05-09T02:44:32.587Z,989.6
2019-05-09T02:45:35.461Z,989.7
2019-05-09T02:46:40.794Z,989.6
2019-05-09T02:47:43.066Z,989.6
2019-05-09T02:48:49.086Z,989.6
2019-05-09T02:49:52.500Z,989.6
2019-05-09T02:50:55.428Z,989.7
2019-05-09T02:52:01.276Z,989.7
2019-05-09T02:53:04.213Z,989.7
2019-05-09T02:54:10.463Z,989.7
2019-05-09T02:55:13.135Z,989.7
2019-05-09T02:56:19.289Z,989.7
2019-05-09T02:57:21.749Z,989.7
2019-05-09T02:58:24.010Z,989.7
2019-05-09T02:59:30.225Z,989.7
2019-05-09T03:00:32.835Z,989.7
2019-05-09T03:01:35.036Z,989.7
2019-05-09T03:02:41.202Z,989.7
2019-05-09T03:03:43.497Z,989.7
2019-05-09T03:04:49.182Z,989.7
2019-05-09T03:05:51.813Z,989.7
2019-05-09T03:06:54.559Z,989.6
2019-05-09T03:07:58.733Z,989.7
2019-05-09T03:09:01.215Z,989.6
2019-05-09T03:10:04.689Z,989.7
2019-05-09T03:11:10.123Z,989.7
2019-05-09T03:12:34.616Z,989.7
2019-05-09T03:13:41.861Z,989.7
2019-05-09T03:14:44.319Z,989.7
2019-05-09T03:15:49.633Z,989.7
2019-05-09T03:16:53.029Z,989.7
2019-05-09T03:17:55.280Z,989.7
2019-05-09T03:19:01.612Z,989.7
2019-05-09T03:20:04.079Z,989.7
2019-05-09T03:21:09.475Z,989.8
2019-05-09T03:22:12.454Z,989.8
2019-05-09T03:23:15.032Z,989.7
2019-05-09T03:24:21.108Z,989.8
2019-05-09T03:25:23.351Z,989.8
2019-05-09T03:26:25.800Z,989.7
2019-05-09T03:27:31.389Z,989.7
2019-05-09T03:28:33.906Z,989.7
2019-05-09T03:29:39.299Z,989.7
2019-05-09T03:30:42.376Z,989.7
2019-05-09T03:31:45.230Z,989.7
2019-05-09T03:32:52.493Z,989.8
2019-05-09T03:33:58.983Z,989.8
2019-05-09T03:35:02.262Z,989.8
2019-05-09T03:36:04.426Z,989.8
2019-05-09T03:37:09.052Z,989.9
2019-05-09T03:38:11.279Z,989.9
2019-05-09T03:39:13.752Z,989.8
2019-05-09T03:40:18.237Z,989.8
2019-05-09T03:41:20.488Z,989.9
2019-05-09T03:42:43.214Z,989.8
2019-05-09T03:43:48.446Z,989.8
2019-05-09T03:44:51.242Z,989.8
2019-05-09T03:45:53.874Z,989.8
2019-05-09T03:46:58.373Z,989.9
2019-05-09T03:48:00.553Z,989.9
2019-05-09T03:49:02.909Z,990
2019-05-09T03:50:05.080Z,989.9
2019-05-09T03:51:10.074Z,989.9
2019-05-09T03:52:12.526Z,989.9
2019-05-09T03:53:14.963Z,989.9
2019-05-09T03:54:18.670Z,989.9
2019-05-09T03:55:21.181Z,990
2019-05-09T03:56:23.413Z,990
2019-05-09T03:57:25.587Z,990
2019-05-09T03:58:30.028Z,990
2019-05-09T03:59:32.522Z,990
2019-05-09T04:00:34.982Z,990
2019-05-09T04:01:39.522Z,990
2019-05-09T04:02:42.996Z,990
2019-05-09T04:03:45.162Z,990
2019-05-09T04:04:50.111Z,990
2019-05-09T04:06:02.776Z,990
2019-05-09T04:07:05.246Z,990.1
2019-05-09T04:08:10.349Z,990.2
2019-05-09T04:09:12.558Z,990.1
2019-05-09T04:10:14.748Z,990.2
2019-05-09T04:11:19.669Z,990.2
2019-05-09T04:12:22.138Z,990.2
2019-05-09T04:13:24.581Z,990.2
2019-05-09T04:14:28.517Z,990.2
2019-05-09T04:15:30.699Z,990.2
2019-05-09T04:16:32.931Z,990.2
2019-05-09T04:17:35.080Z,990.2
2019-05-09T04:18:40.623Z,990.2
2019-05-09T04:19:43.192Z,990.2
2019-05-09T04:20:45.351Z,990.1
2019-05-09T04:21:50.343Z,990.2
2019-05-09T04:22:52.526Z,990.2
2019-05-09T04:23:54.744Z,990.3
2019-05-09T04:24:57.953Z,990.2
2019-05-09T04:26:00.122Z,990.2
2019-05-09T04:27:02.346Z,990.3
2019-05-09T04:28:04.517Z,990.3
2019-05-09T04:29:09.064Z,990.3
2019-05-09T04:30:11.216Z,990.3
2019-05-09T04:31:13.452Z,990.3
2019-05-09T04:32:15.622Z,990.3
2019-05-09T04:33:20.537Z,990.3
2019-05-09T04:34:22.797Z,990.3
2019-05-09T04:35:24.960Z,990.2
2019-05-09T04:36:29.601Z,990.2
2019-05-09T04:37:31.760Z,990.2
2019-05-09T04:38:33.959Z,990.2
2019-05-09T04:39:40.802Z,990.2
2019-05-09T04:40:48.746Z,990.2
2019-05-09T04:42:02.951Z,990.2
2019-05-09T04:43:26.879Z,990.2
2019-05-09T04:44:41.344Z,990.2
2019-05-09T04:45:43.557Z,990.2
2019-05-09T04:46:48.267Z,990.2
2019-05-09T04:47:50.723Z,990.3
2019-05-09T04:48:59.260Z,990.2
2019-05-09T04:50:04.604Z,990.2
2019-05-09T04:51:09.846Z,990.3
2019-05-09T04:52:12.392Z,990.3
2019-05-09T04:53:14.544Z,990.3
2019-05-09T04:54:18.311Z,990.4
2019-05-09T04:55:20.489Z,990.4
2019-05-09T04:56:22.725Z,990.4
2019-05-09T04:57:24.890Z,990.4
2019-05-09T04:58:29.404Z,990.4
2019-05-09T04:59:31.622Z,990.4
2019-05-09T05:00:33.793Z,990.5
2019-05-09T05:01:39.114Z,990.4
2019-05-09T05:02:41.591Z,990.5
2019-05-09T05:03:43.747Z,990.5
2019-05-09T05:04:48.145Z,990.5
2019-05-09T05:05:50.602Z,990.6
2019-05-09T05:06:52.830Z,990.5
2019-05-09T05:07:57.151Z,990.5
2019-05-09T05:08:59.845Z,990.5
2019-05-09T05:10:02.346Z,990.5
2019-05-09T05:11:07.625Z,990.5
2019-05-09T05:12:09.866Z,990.5
2019-05-09T05:13:27.236Z,990.6
2019-05-09T05:14:31.875Z,990.5
2019-05-09T05:15:34.338Z,990.6
2019-05-09T05:16:39.537Z,990.6
2019-05-09T05:17:42.373Z,990.7
2019-05-09T05:18:44.529Z,990.7
2019-05-09T05:19:49.089Z,990.6
2019-05-09T05:20:51.242Z,990.7
2019-05-09T05:21:53.492Z,990.7
2019-05-09T05:22:58.323Z,990.6
2019-05-09T05:24:00.860Z,990.6
2019-05-09T05:25:03.321Z,990.6
2019-05-09T05:26:06.160Z,990.7
2019-05-09T05:27:10.958Z,990.7
2019-05-09T05:28:13.416Z,990.7
2019-05-09T05:29:17.954Z,990.7
2019-05-09T05:30:20.129Z,990.7
2019-05-09T05:31:22.305Z,990.7
2019-05-09T05:32:24.761Z,990.7
2019-05-09T05:33:29.548Z,990.7
2019-05-09T05:34:32.183Z,990.7
2019-05-09T05:35:34.368Z,990.7
2019-05-09T05:36:39.443Z,990.7
2019-05-09T05:37:41.675Z,990.8
2019-05-09T05:38:43.874Z,990.7
2019-05-09T05:39:48.015Z,990.7
2019-05-09T05:40:50.551Z,990.7
2019-05-09T05:41:52.743Z,990.8
2019-05-09T05:42:55.286Z,990.7
2019-05-09T05:44:00.784Z,990.8
2019-05-09T05:45:02.954Z,990.7
2019-05-09T05:46:07.456Z,990.7
2019-05-09T05:47:09.790Z,990.7
2019-05-09T05:48:11.970Z,990.8
2019-05-09T05:49:14.436Z,990.7
2019-05-09T05:50:18.256Z,990.7
2019-05-09T05:51:20.455Z,990.7
2019-05-09T05:52:22.678Z,990.7
2019-05-09T05:53:24.868Z,990.7
2019-05-09T05:54:29.801Z,990.7
2019-05-09T05:55:31.993Z,990.7
2019-05-09T05:56:34.162Z,990.7
2019-05-09T05:57:38.895Z,990.8
2019-05-09T05:58:41.077Z,990.8
2019-05-09T05:59:43.292Z,990.8
2019-05-09T06:00:45.488Z,990.8
2019-05-09T06:01:50.008Z,990.8
2019-05-09T06:02:52.238Z,990.8
2019-05-09T06:03:54.407Z,990.8
2019-05-09T06:04:58.189Z,990.8
2019-05-09T06:06:00.352Z,990.8
2019-05-09T06:07:02.618Z,990.9
2019-05-09T06:08:05.068Z,990.9
2019-05-09T06:09:09.944Z,991
2019-05-09T06:10:12.171Z,991
2019-05-09T06:11:14.335Z,990.9
2019-05-09T06:12:19.562Z,990.9
2019-05-09T06:13:21.676Z,991
2019-05-09T06:14:23.834Z,991
2019-05-09T06:15:28.525Z,990.9
2019-05-09T06:16:30.990Z,991
2019-05-09T06:17:33.234Z,990.9
2019-05-09T06:18:35.411Z,990.9
2019-05-09T06:19:40.751Z,990.9
2019-05-09T06:20:48.550Z,990.9
2019-05-09T06:21:52.693Z,991
2019-05-09T06:22:54.805Z,991
2019-05-09T06:23:59.396Z,991
2019-05-09T06:25:02.273Z,991
2019-05-09T06:26:10.472Z,991
2019-05-09T06:27:13.070Z,991
2019-05-09T06:28:17.955Z,991.1
2019-05-09T06:29:20.492Z,991.1
2019-05-09T06:30:22.656Z,991.1
2019-05-09T06:31:24.836Z,991.1
2019-05-09T06:32:28.257Z,991.1
2019-05-09T06:33:31.368Z,991.2
2019-05-09T06:34:33.923Z,991.2
2019-05-09T06:35:38.203Z,991.1
2019-05-09T06:36:40.385Z,991.2
2019-05-09T06:37:42.571Z,991.2
2019-05-09T06:38:45.223Z,991.2
2019-05-09T06:39:49.705Z,991.2
2019-05-09T06:40:51.926Z,991.1
2019-05-09T06:41:54.158Z,991.2
2019-05-09T06:43:00.379Z,991.2
2019-05-09T06:44:17.907Z,991.2
2019-05-09T06:45:23.186Z,991.2
2019-05-09T06:46:27.969Z,991.3
2019-05-09T06:47:30.511Z,991.2
2019-05-09T06:48:32.638Z,991.2
2019-05-09T06:49:35.124Z,991.2
2019-05-09T06:50:39.536Z,991.3
2019-05-09T06:51:42.112Z,991.3
2019-05-09T06:52:44.341Z,991.3
2019-05-09T06:53:49.058Z,991.3
2019-05-09T06:54:51.671Z,991.3
2019-05-09T06:55:53.844Z,991.3
2019-05-09T06:56:58.710Z,991.3
2019-05-09T06:58:01.539Z,991.3
2019-05-09T06:59:04.127Z,991.3
2019-05-09T07:00:08.606Z,991.2
2019-05-09T07:01:10.733Z,991.2
2019-05-09T07:02:12.903Z,991.2
2019-05-09T07:03:15.153Z,991.3
2019-05-09T07:04:20.053Z,991.3
2019-05-09T07:05:22.310Z,991.2
2019-05-09T07:06:24.782Z,991.3
2019-05-09T07:07:29.647Z,991.3
2019-05-09T07:08:31.841Z,991.3
2019-05-09T07:09:34.036Z,991.3
2019-05-09T07:10:38.023Z,991.4
2019-05-09T07:11:40.204Z,991.3
2019-05-09T07:12:42.448Z,991.3
2019-05-09T07:13:44.616Z,991.3
2019-05-09T07:14:49.488Z,991.3
2019-05-09T07:15:51.716Z,991.3
2019-05-09T07:16:53.879Z,991.3
2019-05-09T07:17:57.863Z,991.3
2019-05-09T07:19:00.446Z,991.3
2019-05-09T07:20:03.005Z,991.4
2019-05-09T07:21:05.255Z,991.3
2019-05-09T07:22:10.403Z,991.3
2019-05-09T07:23:12.584Z,991.3
2019-05-09T07:24:14.848Z,991.3
2019-05-09T07:25:20.077Z,991.3
2019-05-09T07:26:22.321Z,991.3
2019-05-09T07:27:24.485Z,991.3
2019-05-09T07:28:28.537Z,991.3
2019-05-09T07:29:30.717Z,991.3
2019-05-09T07:30:32.909Z,991.3
2019-05-09T07:31:38.134Z,991.3
2019-05-09T07:32:40.876Z,991.4
2019-05-09T07:33:43.073Z,991.4
2019-05-09T07:34:47.657Z,991.3
2019-05-09T07:35:49.852Z,991.4
2019-05-09T07:36:52.088Z,991.4
2019-05-09T07:37:54.563Z,991.4
2019-05-09T07:38:59.317Z,991.4
2019-05-09T07:40:01.451Z,991.4
2019-05-09T07:41:03.808Z,991.5
2019-05-09T07:42:07.954Z,991.5
2019-05-09T07:43:10.528Z,991.5
2019-05-09T07:44:12.788Z,991.5
2019-05-09T07:45:14.991Z,991.5
2019-05-09T07:46:19.922Z,991.4
2019-05-09T07:47:22.111Z,991.5
2019-05-09T07:48:24.277Z,991.5
2019-05-09T07:49:28.631Z,991.5
2019-05-09T07:50:30.827Z,991.5
2019-05-09T07:51:33.079Z,991.5
2019-05-09T07:52:35.258Z,991.5
2019-05-09T07:53:38.409Z,991.5
2019-05-09T07:54:40.870Z,991.5
2019-05-09T07:55:43.162Z,991.5
2019-05-09T07:56:45.426Z,991.5
2019-05-09T07:57:58.625Z,991.5
2019-05-09T07:59:01.765Z,991.5
2019-05-09T08:00:03.945Z,991.5
2019-05-09T08:01:08.859Z,991.6
2019-05-09T08:02:11.707Z,991.6
2019-05-09T08:03:14.247Z,991.5
2019-05-09T08:04:18.545Z,991.5
2019-05-09T08:05:21.075Z,991.6
2019-05-09T08:06:23.395Z,991.5
2019-05-09T08:07:29.270Z,991.5
2019-05-09T08:08:31.793Z,991.5
2019-05-09T08:09:34.364Z,991.5
2019-05-09T08:10:38.748Z,991.6
2019-05-09T08:11:40.924Z,991.6
2019-05-09T08:12:43.106Z,991.6
2019-05-09T08:13:48.300Z,991.7
2019-05-09T08:15:16.325Z,991.7
2019-05-09T08:16:22.717Z,991.7
2019-05-09T08:17:25.315Z,991.7
2019-05-09T08:18:31.054Z,991.7
2019-05-09T08:19:33.250Z,991.8
2019-05-09T08:20:35.420Z,991.7
2019-05-09T08:21:42.530Z,991.8
2019-05-09T08:23:01.849Z,991.8
2019-05-09T08:24:05.131Z,991.7
2019-05-09T08:25:10.218Z,991.7
2019-05-09T08:26:12.473Z,991.7
2019-05-09T08:27:17.707Z,991.7
2019-05-09T08:28:20.523Z,991.8
2019-05-09T08:29:22.687Z,991.8
2019-05-09T08:30:28.879Z,991.8
2019-05-09T08:31:48.320Z,991.8
2019-05-09T08:32:51.118Z,991.8
2019-05-09T08:33:53.608Z,991.8
2019-05-09T08:34:57.981Z,991.9
2019-05-09T08:36:00.243Z,991.8
2019-05-09T08:37:02.415Z,991.8
2019-05-09T08:38:04.616Z,991.9
2019-05-09T08:39:08.506Z,991.9
2019-05-09T08:40:11.537Z,991.9
2019-05-09T08:41:13.752Z,991.8
2019-05-09T08:42:20.457Z,991.8
2019-05-09T08:43:22.982Z,991.8
2019-05-09T08:44:25.152Z,991.8
2019-05-09T08:45:32.225Z,991.8
2019-05-09T08:46:34.459Z,991.8
2019-05-09T08:47:39.096Z,991.9
2019-05-09T08:48:41.338Z,991.9
2019-05-09T08:49:49.569Z,991.9
2019-05-09T08:50:51.839Z,991.9
2019-05-09T08:52:16.018Z,991.9
2019-05-09T08:53:22.144Z,992
2019-05-09T08:54:24.325Z,991.9
2019-05-09T08:55:28.932Z,991.9
2019-05-09T08:56:31.193Z,991.9
2019-05-09T08:57:33.361Z,991.9
2019-05-09T08:58:37.952Z,991.9
2019-05-09T08:59:40.818Z,991.9
2019-05-09T09:00:43.144Z,991.9
2019-05-09T09:02:15.621Z,991.9
2019-05-09T09:03:24.443Z,991.9
2019-05-09T09:04:29.756Z,991.9
2019-05-09T09:05:32.221Z,991.9
2019-05-09T09:06:34.477Z,991.9
2019-05-09T09:07:38.201Z,991.9
2019-05-09T09:08:40.973Z,991.9
2019-05-09T09:09:43.186Z,992
2019-05-09T09:10:45.403Z,992
2019-05-09T09:11:50.722Z,992
2019-05-09T09:12:52.909Z,992
2019-05-09T09:13:57.072Z,991.9
2019-05-09T09:14:59.881Z,992
2019-05-09T09:16:21.525Z,992
2019-05-09T09:17:28.119Z,992
2019-05-09T09:18:30.943Z,992
2019-05-09T09:19:33.409Z,992
2019-05-09T09:20:38.320Z,992
2019-05-09T09:21:40.576Z,992
2019-05-09T09:22:42.770Z,992
2019-05-09T09:23:50.945Z,992
2019-05-09T09:24:53.200Z,992
2019-05-09T09:25:58.584Z,992
2019-05-09T09:27:00.761Z,992
2019-05-09T09:28:02.959Z,992
2019-05-09T09:29:05.524Z,992.1
2019-05-09T09:30:24.941Z,992.1
2019-05-09T09:31:31.766Z,992.1
2019-05-09T09:32:33.940Z,992.1
2019-05-09T09:33:38.239Z,992.1
2019-05-09T09:34:40.440Z,992.1
2019-05-09T09:35:42.635Z,992.1
2019-05-09T09:36:44.868Z,992
2019-05-09T09:37:52.530Z,992
2019-05-09T09:38:55.157Z,992
2019-05-09T09:40:00.242Z,992
2019-05-09T09:41:03.192Z,992
2019-05-09T09:42:08.636Z,992
2019-05-09T09:43:11.299Z,992
2019-05-09T09:44:13.539Z,992
2019-05-09T09:45:18.810Z,992
2019-05-09T09:46:21.053Z,992
2019-05-09T09:47:24.099Z,992
2019-05-09T09:48:28.688Z,992
2019-05-09T09:49:30.879Z,992.1
2019-05-09T09:50:33.586Z,992.1
2019-05-09T09:51:38.491Z,992
2019-05-09T09:52:40.754Z,992
2019-05-09T09:53:43.003Z,992
2019-05-09T09:54:48.389Z,992
2019-05-09T09:55:50.978Z,992.1
2019-05-09T09:56:53.502Z,992
2019-05-09T09:57:58.161Z,992
2019-05-09T09:59:00.393Z,992.1
2019-05-09T10:00:02.588Z,992.1
2019-05-09T10:01:05.183Z,992.1
2019-05-09T10:02:10.731Z,992.1
2019-05-09T10:03:13.308Z,992.1
2019-05-09T10:04:24.547Z,992.1
2019-05-09T10:05:28.087Z,992.1
2019-05-09T10:06:30.326Z,992.1
2019-05-09T10:07:32.508Z,992.2
2019-05-09T10:08:34.962Z,992.1
2019-05-09T10:09:41.890Z,992.2
2019-05-09T10:10:44.110Z,992.1
2019-05-09T10:11:48.643Z,992.1
2019-05-09T10:12:50.797Z,992.1
2019-05-09T10:13:53.488Z,992.1
2019-05-09T10:14:57.936Z,992.1
2019-05-09T10:16:00.140Z,992.1
2019-05-09T10:17:02.893Z,992.1
2019-05-09T10:18:07.786Z,992.1
2019-05-09T10:19:10.347Z,992.2
2019-05-09T10:20:12.837Z,992.2
2019-05-09T10:21:15.018Z,992.1
2019-05-09T10:22:25.647Z,992.1
2019-05-09T10:23:29.949Z,992.2
2019-05-09T10:24:32.168Z,992.1
2019-05-09T10:25:34.366Z,992.2
2019-05-09T10:26:39.237Z,992.1
2019-05-09T10:27:41.437Z,992.1
2019-05-09T10:28:45.720Z,992.1
2019-05-09T10:29:51.021Z,992.2
2019-05-09T10:30:53.201Z,992.2
2019-05-09T10:31:58.335Z,992.2
2019-05-09T10:33:00.540Z,992.2
2019-05-09T10:34:03.100Z,992.2
2019-05-09T10:35:05.304Z,992.2
2019-05-09T10:36:10.369Z,992.2
2019-05-09T10:37:12.656Z,992.2
2019-05-09T10:38:14.928Z,992.2
2019-05-09T10:39:20.257Z,992.2
2019-05-09T10:40:23.299Z,992.2
2019-05-09T10:41:25.792Z,992.3
2019-05-09T10:42:29.261Z,992.2
2019-05-09T10:43:39.208Z,992.2
2019-05-09T10:44:41.418Z,992.3
2019-05-09T10:45:43.616Z,992.3
2019-05-09T10:47:01.832Z,992.2
2019-05-09T10:48:04.630Z,992.2
2019-05-09T10:49:08.707Z,992.2
2019-05-09T10:50:11.312Z,992.2
2019-05-09T10:51:13.788Z,992.2
2019-05-09T10:52:18.451Z,992.2
2019-05-09T10:53:20.915Z,992.2
2019-05-09T10:54:23.178Z,992.2
2019-05-09T10:55:25.374Z,992.3
2019-05-09T10:56:30.478Z,992.2
2019-05-09T10:57:33.376Z,992.2
2019-05-09T10:58:38.001Z,992.2
2019-05-09T10:59:40.274Z,992.2
2019-05-09T11:00:42.475Z,992.2
2019-05-09T11:01:44.728Z,992.2
2019-05-09T11:02:51.281Z,992.2
2019-05-09T11:03:53.882Z,992.1
2019-05-09T11:04:58.222Z,992.1
2019-05-09T11:06:00.425Z,992.1
2019-05-09T11:07:03.392Z,992.1
2019-05-09T11:08:08.476Z,992.1
2019-05-09T11:09:10.752Z,992.2
2019-05-09T11:10:29.924Z,992.2
2019-05-09T11:11:35.084Z,992.1
2019-05-09T11:12:37.424Z,992.1
2019-05-09T11:13:39.618Z,992.1
2019-05-09T11:14:42.149Z,992.1
2019-05-09T11:15:44.706Z,992.2
2019-05-09T11:17:11.470Z,992.2
2019-05-09T11:18:23.741Z,992.2
2019-05-09T11:19:28.535Z,992.2
2019-05-09T11:20:30.963Z,992.2
2019-05-09T11:21:33.237Z,992.2
2019-05-09T11:22:38.381Z,992.2
2019-05-09T11:23:40.873Z,992.2
2019-05-09T11:24:51.193Z,992.3
2019-05-09T11:25:54.119Z,992.2
2019-05-09T11:26:59.077Z,992.2
2019-05-09T11:28:14.829Z,992.1
2019-05-09T11:29:19.963Z,992.2
2019-05-09T11:30:22.146Z,992.2
2019-05-09T11:31:24.329Z,992.2
2019-05-09T11:32:28.312Z,992.2
2019-05-09T11:33:30.755Z,992.1
2019-05-09T11:34:33.040Z,992.2
2019-05-09T11:35:38.304Z,992.2
2019-05-09T11:36:40.561Z,992.3
2019-05-09T11:37:43.025Z,992.2
2019-05-09T11:38:45.565Z,992.2
2019-05-09T11:39:51.866Z,992.2
2019-05-09T11:40:54.048Z,992.2
2019-05-09T11:41:59.321Z,992.2
2019-05-09T11:43:01.801Z,992.2
2019-05-09T11:44:04.051Z,992.2
2019-05-09T11:45:09.744Z,992.2
2019-05-09T11:46:11.923Z,992.2
2019-05-09T11:47:39.673Z,992.2
2019-05-09T11:48:49.013Z,992.2
2019-05-09T11:49:51.622Z,992.2
2019-05-09T11:50:54.107Z,992.2
2019-05-09T11:51:57.969Z,992.3
2019-05-09T11:53:00.575Z,992.2
2019-05-09T11:54:02.802Z,992.3
2019-05-09T11:55:27.426Z,992.3
2019-05-09T11:56:45.377Z,992.3
2019-05-09T11:57:50.095Z,992.2
2019-05-09T11:58:52.387Z,992.2
2019-05-09T11:59:54.559Z,992.2
2019-05-09T12:01:03.636Z,992.2
2019-05-09T12:02:09.070Z,992.2
2019-05-09T12:03:11.287Z,992.2
2019-05-09T12:04:13.930Z,992.2
2019-05-09T12:05:19.798Z,992.2
2019-05-09T12:06:22.043Z,992.3
2019-05-09T12:07:24.250Z,992.3
2019-05-09T12:08:26.418Z,992.3
2019-05-09T12:09:29.535Z,992.3
2019-05-09T12:10:32.131Z,992.3
2019-05-09T12:11:34.389Z,992.3
2019-05-09T12:12:41.428Z,992.3
2019-05-09T12:13:43.687Z,992.3
2019-05-09T12:14:48.575Z,992.3
2019-05-09T12:15:50.767Z,992.3
2019-05-09T12:16:53.075Z,992.3
2019-05-09T12:18:07.853Z,992.3
2019-05-09T12:19:14.136Z,992.3
2019-05-09T12:20:19.301Z,992.3
2019-05-09T12:21:21.544Z,992.3
2019-05-09T12:22:24.355Z,992.3
2019-05-09T12:23:29.598Z,992.3
2019-05-09T12:24:32.131Z,992.3
2019-05-09T12:25:34.328Z,992.2
2019-05-09T12:26:39.394Z,992.3
2019-05-09T12:27:41.594Z,992.3
2019-05-09T12:28:44.404Z,992.3
2019-05-09T12:29:49.470Z,992.4
2019-05-09T12:30:51.967Z,992.4
2019-05-09T12:31:54.499Z,992.4
2019-05-09T12:32:59.277Z,992.3
2019-05-09T12:34:01.625Z,992.4
2019-05-09T12:35:04.744Z,992.3
2019-05-09T12:36:09.629Z,992.4
2019-05-09T12:37:11.857Z,992.4
2019-05-09T12:38:14.047Z,992.3
2019-05-09T12:39:19.405Z,992.4
2019-05-09T12:40:21.606Z,992.4
2019-05-09T12:41:23.832Z,992.4
2019-05-09T12:42:29.648Z,992.5
2019-05-09T12:43:32.007Z,992.4
2019-05-09T12:44:34.247Z,992.4
2019-05-09T12:45:39.103Z,992.3
2019-05-09T12:46:41.380Z,992.3
2019-05-09T12:47:43.556Z,992.3
2019-05-09T12:48:48.333Z,992.3
2019-05-09T12:49:50.859Z,992.3
2019-05-09T12:50:53.305Z,992.3
2019-05-09T12:51:58.693Z,992.4
2019-05-09T12:53:01.312Z,992.5
2019-05-09T12:54:03.549Z,992.5
2019-05-09T12:55:08.521Z,992.4
2019-05-09T12:56:14.761Z,992.4
2019-05-09T12:57:19.611Z,992.4
2019-05-09T12:58:22.304Z,992.5
2019-05-09T12:59:24.542Z,992.5
2019-05-09T13:00:28.702Z,992.4
2019-05-09T13:01:30.954Z,992.3
2019-05-09T13:02:33.158Z,992.4
2019-05-09T13:03:37.914Z,992.4
2019-05-09T13:04:41.105Z,992.4
2019-05-09T13:05:46.605Z,992.3
2019-05-09T13:06:49.416Z,992.4
2019-05-09T13:07:51.628Z,992.3
2019-05-09T13:08:53.871Z,992.3
2019-05-09T13:09:58.443Z,992.3
2019-05-09T13:11:02.878Z,992.3
2019-05-09T13:12:05.092Z,992.3
2019-05-09T13:13:10.021Z,992.3
2019-05-09T13:14:12.206Z,992.3
2019-05-09T13:15:15.116Z,992.3
2019-05-09T13:16:20.457Z,992.2
2019-05-09T13:17:22.722Z,992.2
2019-05-09T13:18:29.657Z,992.3
2019-05-09T13:19:32.765Z,992.3
2019-05-09T13:20:35.330Z,992.2
2019-05-09T13:21:40.140Z,992.2
2019-05-09T13:22:42.303Z,992.2
2019-05-09T13:23:44.896Z,992.2
2019-05-09T13:24:54.457Z,992.3
2019-05-09T13:25:58.838Z,992.2
2019-05-09T13:27:01.114Z,992.2
2019-05-09T13:28:05.013Z,992.2
2019-05-09T13:29:10.074Z,992.2
2019-05-09T13:30:12.663Z,992.2
2019-05-09T13:31:17.871Z,992.3
2019-05-09T13:32:20.453Z,992.2
2019-05-09T13:33:23.551Z,992.2
2019-05-09T13:34:28.623Z,992.3
2019-05-09T13:35:30.830Z,992.3
2019-05-09T13:36:33.046Z,992.2
2019-05-09T13:37:38.560Z,992.3
2019-05-09T13:39:04.565Z,992.3
2019-05-09T13:40:12.015Z,992.3
2019-05-09T13:41:14.859Z,992.2
2019-05-09T13:42:20.292Z,992.2
2019-05-09T13:43:22.493Z,992.2
2019-05-09T13:44:25.071Z,992.2
2019-05-09T13:45:30.059Z,992.2
2019-05-09T13:46:32.287Z,992.2
2019-05-09T13:47:34.476Z,992.3